Main page
METAR-TAF:

METAR-TAF

Airports :

Bergerac Dordogne Périgord Airport

Bergerac, France

latitude: 44-49N, longitude: 000-31E, elevation: 51 m

Current weather observation

The report was made 14 minutes ago, at 18:30 UTC
Wind 6 kt from the North/Northeast
Temperature 5°C
Humidity 65%
Pressure 1002 hPa
Visibility 10 km or more
no clouds below 1500 m and no cumulonimbus

METAR: LFBE 191830Z AUTO 03006KT CAVOK 05/M01 Q1002 NOSIG

Time: 19:44 (18:44 UTC)

Forecast

The report was made 1 hour and 44 minutes ago, at 17:00 UTC
Forecast valid from 19 at 18 UTC to 20 at 18 UTC
Wind 10 kt from the North
Visibility 10 km or more
no clouds below 1500 m and no cumulonimbus
Becoming
from 19 at 22 UTC to 19 at 24 UTC
Wind 5 kt from the North/Northwest
Probability 30% :
Temporary
from 20 at 02 UTC to 20 at 06 UTC
Visibility: 4000 m
mist

TAF: LFBE 191700Z 1918/2018 01010KT CAVOK BECMG 1922/1924 34005KT PROB30 TEMPO 2002/2006 4000 BR

Weather observations and forecasts of more than 4000 airports (METAR and TAF reports).

The available stations are represented by yellow and red dots on the map.

Hover mouse over dot to see the name of the station.

Then click to see weather observations and forecasts.

To change the map : click on the green buttons with a black cross to zoom in, on the green button with a dash to zoom out, or on the green arrows for adjacent maps.


METAR-TAF: